Time;durP1;ratioP1;P1;durP2;ratioP2;P2;SDS_P1;SDS_P2;PMS_P1;PMS_P2;Temp;Humidity;BMP_temperature;BMP_pressure;BME280_temperature;BME280_humidity;BME280_pressure;Samples;Min_cycle;Max_cycle;Signal;HPM_P1;HPM_P2
2022/07/30 00:02:08;;;;;;;;;9.50;9.00;;;30.39;97611.35;;;;118996;1190;25119;-65
2022/07/30 00:04:36;;;;;;;;;7.50;7.50;;;30.39;97603.61;;;;118997;1190;25519;-65
2022/07/30 00:07:04;;;;;;;;;7.75;7.75;;;30.41;97602.76;;;;119000;1190;25741;-65
2022/07/30 00:09:33;;;;;;;;;8.25;7.25;;;30.40;97600.26;;;;118999;1189;25535;-65
2022/07/30 00:12:04;;;;;;;;;10.75;9.75;;;30.40;97604.61;;;;118977;1189;26005;-65
2022/07/30 00:14:33;;;;;;;;;6.75;6.75;;;30.41;97607.03;;;;119005;1190;24813;-65
2022/07/30 00:17:02;;;;;;;;;9.00;9.00;;;30.40;97607.08;;;;118994;1190;25238;-65
2022/07/30 00:19:31;;;;;;;;;8.25;8.25;;;30.40;97602.69;;;;118978;1190;25679;-65
2022/07/30 00:21:59;;;;;;;;;10.25;8.75;;;30.41;97600.73;;;;118990;1189;25186;-65
2022/07/30 00:24:27;;;;;;;;;9.00;7.50;;;30.40;97602.46;;;;119008;1190;25803;-64
2022/07/30 00:26:54;;;;;;;;;7.75;6.75;;;30.40;97596.05;;;;119010;1190;25403;-64
2022/07/30 00:29:22;;;;;;;;;7.50;7.50;;;30.38;97592.72;;;;118991;1190;25450;-64
2022/07/30 00:31:50;;;;;;;;;8.75;8.75;;;30.37;97589.79;;;;118991;1190;25715;-63
2022/07/30 00:34:18;;;;;;;;;6.25;6.25;;;30.37;97587.27;;;;118980;1188;25135;-64
2022/07/30 00:36:46;;;;;;;;;9.75;9.75;;;30.38;97584.66;;;;119239;1188;24784;-64
2022/07/30 00:39:14;;;;;;;;;8.00;7.00;;;30.38;97580.77;;;;119266;1187;25695;-64
2022/07/30 00:42:00;;;;;;;;;8.50;7.75;;;30.39;97573.23;;;;119151;1187;25494;-65
2022/07/30 00:44:29;;;;;;;;;8.75;7.00;;;30.42;97571.09;;;;119253;1188;25014;-65
2022/07/30 00:46:57;;;;;;;;;8.50;7.50;;;30.41;97571.42;;;;119240;1186;24723;-65
2022/07/30 00:49:26;;;;;;;;;10.00;9.00;;;30.39;97571.19;;;;119256;1187;26306;-65
2022/07/30 00:51:54;;;;;;;;;6.50;6.50;;;30.39;97568.61;;;;119004;1190;26109;-65
2022/07/30 00:54:22;;;;;;;;;12.00;8.25;;;30.40;97564.25;;;;119262;1187;25401;-65
2022/07/30 00:56:50;;;;;;;;;10.00;9.25;;;30.38;97561.03;;;;119246;1188;25608;-65
2022/07/30 00:59:18;;;;;;;;;4.25;4.25;;;30.37;97556.20;;;;119236;1187;24780;-64
2022/07/30 01:01:46;;;;;;;;;9.75;9.25;;;30.37;97555.92;;;;119252;1187;24806;-63
2022/07/30 01:04:14;;;;;;;;;7.25;6.25;;;30.37;97554.75;;;;119232;1188;25676;-65
2022/07/30 01:06:41;;;;;;;;;11.33;9.67;;;30.37;97553.99;;;;119280;1187;25572;-65
2022/07/30 01:09:09;;;;;;;;;9.25;8.50;;;30.36;97552.38;;;;119047;1189;25234;-65
2022/07/30 01:11:39;;;;;;;;;8.25;8.25;;;30.36;97548.71;;;;119275;1187;26357;-65
2022/07/30 01:14:08;;;;;;;;;8.00;8.00;;;30.37;97545.80;;;;119198;1186;26388;-65
2022/07/30 01:16:37;;;;;;;;;9.25;7.75;;;30.38;97545.91;;;;119230;1186;25443;-65
2022/07/30 01:22:19;;;;;;;;;9.00;8.00;;;30.43;97546.04;;;;118955;1190;24975;-64
2022/07/30 01:25:28;;;;;;;;;5.75;5.75;;;30.41;97542.11;;;;119155;1188;24859;-65
2022/07/30 01:28:05;;;;;;;;;6.50;6.50;;;30.49;97541.63;;;;118946;1187;25679;-64
2022/07/30 01:30:39;;;;;;;;;8.25;7.50;;;30.48;97540.88;;;;119132;1187;25326;-65
2022/07/30 01:33:10;;;;;;;;;9.25;8.25;;;30.46;97539.90;;;;119140;1187;26204;-65
2022/07/30 01:35:38;;;;;;;;;7.33;7.00;;;30.44;97542.56;;;;119241;1187;25122;-65
2022/07/30 01:38:07;;;;;;;;;8.25;6.75;;;30.43;97540.81;;;;119038;1189;24924;-64
2022/07/30 01:40:36;;;;;;;;;11.67;7.33;;;30.41;97539.58;;;;118905;1189;26881;-64
2022/07/30 01:43:05;;;;;;;;;9.50;9.50;;;30.43;97538.59;;;;118952;1189;25169;-66
2022/07/30 01:45:35;;;;;;;;;9.00;6.75;;;30.44;97537.76;;;;118984;1190;25507;-65
2022/07/30 01:48:14;;;;;;;;;6.25;6.25;;;30.44;97535.42;;;;118933;1190;24709;-65
2022/07/30 01:50:45;;;;;;;;;11.75;7.25;;;30.43;97535.11;;;;118931;1189;25885;-66
2022/07/30 01:53:18;;;;;;;;;7.00;6.50;;;30.43;97536.29;;;;118933;1191;25741;-63
2022/07/30 01:55:47;;;;;;;;;9.25;7.25;;;30.43;97538.64;;;;118959;1190;25272;-64
2022/07/30 01:58:18;;;;;;;;;8.50;6.25;;;30.41;97540.07;;;;118890;1191;26284;-64
2022/07/30 02:00:48;;;;;;;;;7.00;5.75;;;30.40;97541.38;;;;118929;1189;24916;-66
2022/07/30 02:03:16;;;;;;;;;7.00;7.00;;;30.40;97538.67;;;;118944;1190;26217;-65
2022/07/30 02:05:55;;;;;;;;;6.00;6.00;;;30.40;97537.86;;;;118900;1190;25957;-64
2022/07/30 02:08:53;;;;;;;;;6.50;5.75;;;30.45;97543.15;;;;119009;1189;25254;-64
2022/07/30 02:14:16;;;;;;;;;10.50;8.50;;;30.47;97532.45;;;;118916;1189;25457;-64
2022/07/30 02:16:50;;;;;;;;;10.00;7.00;;;30.47;97535.65;;;;119002;1189;25478;-65
2022/07/30 02:19:18;;;;;;;;;7.00;6.25;;;30.46;97532.88;;;;118935;1190;25268;-65
2022/07/30 02:21:51;;;;;;;;;10.25;9.25;;;30.47;97528.34;;;;118986;1190;24931;-63
2022/07/30 02:24:24;;;;;;;;;6.50;6.50;;;30.47;97525.16;;;;118902;1190;26101;-65
2022/07/30 02:26:56;;;;;;;;;8.25;5.50;;;30.45;97522.06;;;;118912;1190;25151;-65
2022/07/30 02:29:25;;;;;;;;;7.00;7.00;;;30.44;97525.66;;;;118902;1189;25684;-65
2022/07/30 02:31:55;;;;;;;;;7.75;6.75;;;30.44;97522.77;;;;118863;1191;25621;-66
2022/07/30 02:34:24;;;;;;;;;6.75;6.75;;;30.45;97523.13;;;;118989;1190;25526;-66
2022/07/30 02:36:53;;;;;;;;;6.50;6.50;;;30.43;97517.73;;;;118973;1187;25295;-66
2022/07/30 02:39:21;;;;;;;;;9.25;7.50;;;30.41;97517.22;;;;118953;1188;25532;-65
2022/07/30 02:41:50;;;;;;;;;6.50;6.00;;;30.49;97515.77;;;;119096;1188;26528;-65
2022/07/30 02:44:19;;;;;;;;;8.75;8.00;;;30.47;97512.23;;;;118936;1190;25729;-65
2022/07/30 02:46:48;;;;;;;;;6.75;5.75;;;30.44;97511.38;;;;119014;1189;25477;-65
2022/07/30 02:49:19;;;;;;;;;6.00;6.00;;;30.42;97515.55;;;;119088;1187;24926;-65
2022/07/30 02:51:48;;;;;;;;;6.00;5.50;;;30.41;97511.88;;;;119002;1189;24947;-65
2022/07/30 02:54:17;;;;;;;;;8.00;7.75;;;30.39;97510.75;;;;119115;1188;25245;-65
2022/07/30 02:56:47;;;;;;;;;9.75;6.75;;;30.38;97509.44;;;;119103;1189;24935;-65
2022/07/30 02:59:17;;;;;;;;;9.00;7.00;;;30.37;97506.42;;;;118976;1189;26236;-65
2022/07/30 03:01:46;;;;;;;;;10.00;7.00;;;30.38;97507.79;;;;119091;1188;26634;-65
2022/07/30 03:04:15;;;;;;;;;5.50;5.50;;;30.38;97504.55;;;;119011;1188;25518;-65
2022/07/30 03:06:44;;;;;;;;;8.25;8.25;;;30.39;97503.87;;;;119015;1189;25605;-65
2022/07/30 03:09:14;;;;;;;;;7.00;7.00;;;30.38;97506.65;;;;119087;1187;24827;-65
2022/07/30 03:11:44;;;;;;;;;6.00;6.00;;;30.38;97504.16;;;;119028;1189;25148;-65
2022/07/30 03:14:12;;;;;;;;;7.75;7.25;;;30.38;97506.65;;;;119161;1188;25062;-65
2022/07/30 03:16:47;;;;;;;;;7.75;6.25;;;30.37;97507.76;;;;119117;1187;24988;-65
2022/07/30 03:19:16;;;;;;;;;8.75;7.75;;;30.37;97505.90;;;;119132;1188;24949;-65
2022/07/30 03:21:45;;;;;;;;;6.75;6.00;;;30.38;97506.83;;;;119072;1187;25545;-65
2022/07/30 03:24:14;;;;;;;;;7.00;7.00;;;30.36;97508.13;;;;119014;1188;25693;-65
2022/07/30 03:26:44;;;;;;;;;6.00;6.00;;;30.35;97510.59;;;;119101;1188;25196;-66
2022/07/30 03:29:13;;;;;;;;;7.75;7.75;;;30.34;97511.21;;;;119128;1186;25176;-66
2022/07/30 03:31:41;;;;;;;;;5.00;4.25;;;30.35;97513.13;;;;119018;1189;25095;-65
2022/07/30 03:34:12;;;;;;;;;4.50;4.50;;;30.35;97519.34;;;;119114;1188;25893;-65
2022/07/30 03:36:41;;;;;;;;;8.50;7.50;;;30.35;97523.59;;;;118947;1188;25335;-65
2022/07/30 03:39:09;;;;;;;;;7.75;6.50;;;30.35;97525.52;;;;118970;1189;25773;-65
2022/07/30 03:41:38;;;;;;;;;7.25;6.50;;;30.35;97525.83;;;;119106;1188;25374;-65
2022/07/30 03:44:06;;;;;;;;;10.25;7.75;;;30.35;97524.38;;;;118986;1188;25610;-65
2022/07/30 03:46:37;;;;;;;;;7.50;7.25;;;30.35;97521.76;;;;119038;1188;25072;-65
2022/07/30 03:49:05;;;;;;;;;7.50;6.00;;;30.37;97517.91;;;;119112;1188;26038;-65
2022/07/30 03:51:35;;;;;;;;;9.25;7.00;;;30.37;97517.83;;;;119113;1188;25260;-65
2022/07/30 03:54:08;;;;;;;;;7.25;7.25;;;30.36;97515.28;;;;119006;1189;25531;-65
2022/07/30 03:56:41;;;;;;;;;5.75;5.75;;;30.39;97513.85;;;;119113;1187;25586;-65
2022/07/30 03:59:09;;;;;;;;;4.00;4.00;;;30.38;97512.80;;;;119000;1189;24898;-65
2022/07/30 04:01:37;;;;;;;;;9.00;8.25;;;30.37;97513.91;;;;119097;1189;25431;-65
2022/07/30 04:04:09;;;;;;;;;5.33;4.00;;;30.40;97515.05;;;;119078;1187;26283;-66
2022/07/30 04:06:41;;;;;;;;;6.00;6.00;;;30.39;97518.21;;;;119048;1188;25511;-66
2022/07/30 04:09:11;;;;;;;;;8.50;6.25;;;30.39;97518.00;;;;119031;1188;25649;-64
2022/07/30 04:11:39;;;;;;;;;8.00;7.50;;;30.38;97517.56;;;;119038;1187;25026;-64
2022/07/30 04:14:08;;;;;;;;;11.25;7.75;;;30.38;97520.76;;;;118998;1188;25799;-65
2022/07/30 04:16:46;;;;;;;;;7.75;5.75;;;30.38;97523.23;;;;119083;1187;25437;-65
2022/07/30 04:19:27;;;;;;;;;7.50;7.50;;;30.38;97519.41;;;;118964;1189;26065;-65
2022/07/30 04:21:56;;;;;;;;;6.00;5.25;;;30.42;97517.94;;;;118995;1189;25276;-66
2022/07/30 04:24:25;;;;;;;;;9.00;7.50;;;30.40;97519.31;;;;119094;1188;25737;-67
2022/07/30 04:26:53;;;;;;;;;5.00;5.00;;;30.38;97517.98;;;;118990;1189;25423;-65
2022/07/30 04:29:21;;;;;;;;;7.25;7.25;;;30.36;97517.33;;;;119054;1188;25383;-66
2022/07/30 04:31:55;;;;;;;;;6.75;6.00;;;30.36;97518.11;;;;119104;1188;25454;-64
2022/07/30 04:34:23;;;;;;;;;6.25;5.75;;;30.36;97516.88;;;;119001;1188;25219;-65
2022/07/30 04:36:50;;;;;;;;;7.25;6.00;;;30.35;97515.81;;;;119131;1188;25629;-66
2022/07/30 04:39:19;;;;;;;;;4.50;4.50;;;30.35;97513.52;;;;119155;1188;25825;-65
2022/07/30 04:41:47;;;;;;;;;6.25;6.00;;;30.36;97514.66;;;;119216;1187;26408;-65
2022/07/30 04:44:17;;;;;;;;;5.50;5.50;;;30.36;97516.23;;;;119154;1187;24972;-64
2022/07/30 04:46:46;;;;;;;;;3.50;3.50;;;30.38;97516.92;;;;119230;1187;24964;-65
2022/07/30 04:49:15;;;;;;;;;6.00;6.00;;;30.40;97519.17;;;;119197;1187;26255;-65
2022/07/30 04:51:44;;;;;;;;;4.50;4.00;;;30.39;97519.86;;;;119003;1187;25243;-64
2022/07/30 04:54:13;;;;;;;;;6.67;6.67;;;30.39;97515.16;;;;118956;1188;25067;-65
2022/07/30 04:56:45;;;;;;;;;6.50;4.75;;;30.40;97515.44;;;;119263;1188;25708;-65
2022/07/30 04:59:23;;;;;;;;;8.25;6.00;;;30.42;97520.86;;;;119220;1188;24951;-65
2022/07/30 05:01:54;;;;;;;;;7.50;7.50;;;30.44;97522.00;;;;119249;1187;25630;-66
2022/07/30 05:04:23;;;;;;;;;7.25;7.25;;;30.43;97518.52;;;;119018;1190;25965;-63
2022/07/30 05:06:53;;;;;;;;;6.00;6.00;;;30.41;97518.61;;;;119266;1187;24873;-65
2022/07/30 05:09:21;;;;;;;;;9.00;6.50;;;30.39;97516.54;;;;119058;1189;25132;-65
2022/07/30 05:11:52;;;;;;;;;7.25;6.50;;;30.37;97513.40;;;;119119;1188;25557;-65
2022/07/30 05:14:21;;;;;;;;;6.25;6.00;;;30.36;97513.66;;;;119266;1186;25157;-65
2022/07/30 05:16:50;;;;;;;;;8.50;6.75;;;30.35;97510.13;;;;119224;1187;25707;-65
2022/07/30 05:19:19;;;;;;;;;8.00;6.00;;;30.37;97506.27;;;;119488;1187;25019;-65
2022/07/30 05:21:47;;;;;;;;;8.25;7.50;;;30.58;97509.72;;;;119278;1187;24907;-65
2022/07/30 05:24:15;;;;;;;;;6.75;6.75;;;30.53;97510.01;;;;119265;1188;25605;-65
2022/07/30 05:26:44;;;;;;;;;6.50;6.50;;;30.47;97508.45;;;;119269;1188;25254;-65
2022/07/30 05:29:12;;;;;;;;;5.00;5.00;;;30.43;97507.29;;;;119240;1187;25440;-65
2022/07/30 05:31:47;;;;;;;;;7.00;7.00;;;30.44;97510.84;;;;119202;1187;25619;-65
2022/07/30 05:34:15;;;;;;;;;5.00;5.00;;;30.44;97511.77;;;;119276;1186;25577;-64
2022/07/30 05:36:44;;;;;;;;;8.00;6.00;;;30.42;97518.86;;;;119259;1186;25684;-66
2022/07/30 05:39:13;;;;;;;;;6.00;5.25;;;30.40;97523.38;;;;119041;1188;25037;-65
2022/07/30 05:41:40;;;;;;;;;6.50;6.00;;;30.40;97531.30;;;;119112;1188;25379;-65
2022/07/30 05:44:08;;;;;;;;;7.50;6.50;;;30.38;97537.97;;;;119130;1187;24986;-65
2022/07/30 05:46:36;;;;;;;;;7.00;6.25;;;30.38;97535.36;;;;119117;1187;26439;-65
2022/07/30 05:49:05;;;;;;;;;6.00;6.00;;;30.36;97535.08;;;;119127;1188;25252;-65
2022/07/30 05:51:33;;;;;;;;;6.50;6.50;;;30.36;97534.84;;;;119117;1187;25931;-64
2022/07/30 05:54:01;;;;;;;;;6.00;5.00;;;30.36;97532.61;;;;119146;1188;25135;-64
2022/07/30 05:56:29;;;;;;;;;5.25;5.25;;;30.36;97535.14;;;;119121;1187;24963;-64
2022/07/30 05:58:57;;;;;;;;;7.50;5.00;;;30.34;97538.58;;;;119131;1188;25735;-65
2022/07/30 06:01:24;;;;;;;;;7.25;7.25;;;30.34;97542.77;;;;119120;1187;25588;-66
2022/07/30 06:03:53;;;;;;;;;4.67;4.67;;;30.34;97548.96;;;;119121;1188;26117;-66
2022/07/30 06:06:21;;;;;;;;;6.25;6.25;;;30.33;97552.29;;;;119098;1188;25509;-66
2022/07/30 06:08:50;;;;;;;;;5.00;5.00;;;30.33;97557.88;;;;119130;1187;26987;-65
2022/07/30 06:11:18;;;;;;;;;6.50;6.50;;;30.32;97558.40;;;;119111;1187;24979;-65
2022/07/30 06:13:45;;;;;;;;;7.50;7.50;;;30.32;97555.38;;;;119134;1188;26266;-65
2022/07/30 06:16:13;;;;;;;;;8.25;6.00;;;30.31;97558.02;;;;119104;1187;25612;-65
2022/07/30 06:18:41;;;;;;;;;7.75;6.25;;;30.32;97561.46;;;;119119;1188;26167;-65
2022/07/30 06:21:09;;;;;;;;;5.00;5.00;;;30.32;97564.21;;;;119133;1188;24795;-63
2022/07/30 06:23:37;;;;;;;;;10.25;9.00;;;30.31;97567.63;;;;119105;1188;25147;-65
2022/07/30 06:26:05;;;;;;;;;5.00;5.00;;;30.31;97570.19;;;;119116;1188;25644;-65
2022/07/30 06:28:33;;;;;;;;;9.50;6.75;;;30.31;97571.42;;;;119102;1187;25666;-65
2022/07/30 06:31:06;;;;;;;;;6.00;5.00;;;30.31;97571.84;;;;119088;1188;25590;-66
2022/07/30 06:33:34;;;;;;;;;7.50;7.50;;;30.33;97570.98;;;;119117;1188;24823;-65
2022/07/30 06:36:01;;;;;;;;;4.75;4.75;;;30.32;97569.92;;;;119086;1187;25637;-65
2022/07/30 06:38:29;;;;;;;;;6.50;6.50;;;30.32;97569.91;;;;119070;1188;25624;-65
2022/07/30 06:40:57;;;;;;;;;5.25;5.25;;;30.30;97566.78;;;;119069;1187;25533;-66
2022/07/30 06:43:30;;;;;;;;;8.00;6.33;;;30.31;97568.39;;;;119137;1188;25572;-66
2022/07/30 06:45:58;;;;;;;;;8.50;6.75;;;30.33;97564.91;;;;119238;1186;24745;-66
2022/07/30 06:48:29;;;;;;;;;9.00;8.25;;;30.32;97565.71;;;;118980;1189;25672;-65
2022/07/30 06:50:57;;;;;;;;;6.75;6.75;;;30.33;97565.17;;;;118976;1190;25703;-65
2022/07/30 06:53:25;;;;;;;;;5.75;5.75;;;30.34;97562.24;;;;119264;1187;26271;-65
2022/07/30 06:55:53;;;;;;;;;5.75;5.75;;;30.33;97558.00;;;;119007;1186;26214;-66
2022/07/30 06:58:28;;;;;;;;;7.50;7.50;;;30.33;97558.36;;;;119249;1187;25856;-65
2022/07/30 07:00:56;;;;;;;;;5.75;5.75;;;30.34;97560.66;;;;119273;1187;25764;-63
2022/07/30 07:03:25;;;;;;;;;5.00;5.00;;;30.34;97560.49;;;;119247;1187;25621;-65
2022/07/30 07:06:07;;;;;;;;;4.75;4.75;;;30.36;97560.44;;;;119212;1187;25400;-64
2022/07/30 07:08:37;;;;;;;;;4.50;4.50;;;30.39;97559.98;;;;119221;1186;24861;-64
2022/07/30 07:11:05;;;;;;;;;8.25;6.00;;;30.39;97559.81;;;;119254;1187;25186;-65
2022/07/30 07:13:33;;;;;;;;;6.00;6.00;;;30.38;97556.07;;;;119263;1187;25145;-65
2022/07/30 07:16:01;;;;;;;;;5.75;5.50;;;30.36;97553.66;;;;119259;1187;25015;-65
2022/07/30 07:18:29;;;;;;;;;6.25;5.25;;;30.35;97548.00;;;;119281;1187;25125;-65
2022/07/30 07:20:57;;;;;;;;;3.75;3.75;;;30.35;97544.60;;;;118986;1189;24776;-65
2022/07/30 07:23:24;;;;;;;;;8.00;8.00;;;30.35;97538.92;;;;119002;1190;24968;-65
2022/07/30 07:26:09;;;;;;;;;8.00;5.50;;;30.37;97536.44;;;;119283;1186;25507;-65
2022/07/30 07:28:38;;;;;;;;;6.25;4.75;;;30.39;97538.13;;;;119247;1188;25369;-64
2022/07/30 07:31:10;;;;;;;;;5.75;5.50;;;30.37;97532.56;;;;119247;1187;24846;-64
2022/07/30 07:33:57;;;;;;;;;7.00;5.50;;;30.43;97519.27;;;;119251;1187;25250;-64
2022/07/30 07:36:25;;;;;;;;;8.50;5.75;;;30.45;97511.68;;;;119225;1188;25078;-65
2022/07/30 07:38:53;;;;;;;;;7.00;6.00;;;30.43;97522.68;;;;118971;1190;25667;-65
2022/07/30 07:41:21;;;;;;;;;6.50;6.50;;;30.41;97539.88;;;;118990;1190;25201;-65
2022/07/30 07:43:49;;;;;;;;;8.00;6.67;;;30.41;97543.69;;;;118986;1189;26463;-64
2022/07/30 07:46:17;;;;;;;;;7.00;6.50;;;30.39;97534.04;;;;119011;1190;24776;-65
2022/07/30 07:49:01;;;;;;;;;8.00;6.25;;;30.42;97527.42;;;;118988;1190;25406;-65
2022/07/30 07:51:29;;;;;;;;;5.50;5.50;;;30.45;97516.42;;;;119005;1190;26235;-66
2022/07/30 07:54:15;;;;;;;;;5.50;5.50;;;30.47;97511.06;;;;119008;1190;25670;-65
2022/07/30 07:56:51;;;;;;;;;4.25;4.25;;;30.49;97507.50;;;;118969;1189;25542;-65
2022/07/30 07:59:24;;;;;;;;;7.75;7.25;;;30.48;97503.85;;;;119007;1190;25439;-64
2022/07/30 08:02:06;;;;;;;;;6.00;6.00;;;30.51;97497.46;;;;118986;1190;25851;-65
2022/07/30 08:04:35;;;;;;;;;6.75;6.75;;;30.51;97491.27;;;;118998;1189;25501;-65
2022/07/30 08:07:03;;;;;;;;;8.00;6.00;;;30.51;97498.02;;;;119277;1189;24851;-65
2022/07/30 08:09:31;;;;;;;;;9.00;7.67;;;30.81;97495.95;;;;119034;1190;25139;-65
2022/07/30 08:12:11;;;;;;;;;6.25;6.25;;;30.76;97496.42;;;;118972;1189;25743;-65
2022/07/30 08:14:39;;;;;;;;;7.25;7.00;;;30.70;97494.21;;;;118878;1191;25785;-66
2022/07/30 08:17:08;;;;;;;;;8.00;7.25;;;30.64;97490.32;;;;118971;1189;26165;-66
2022/07/30 08:19:36;;;;;;;;;9.50;7.50;;;30.60;97489.05;;;;118970;1189;25568;-65
2022/07/30 08:22:04;;;;;;;;;7.00;7.00;;;30.58;97490.47;;;;118916;1189;25791;-65
2022/07/30 08:24:32;;;;;;;;;5.50;5.50;;;30.59;97486.58;;;;118971;1189;24915;-65
2022/07/30 08:27:00;;;;;;;;;7.33;7.33;;;30.57;97488.89;;;;118983;1190;25771;-65
2022/07/30 08:29:28;;;;;;;;;6.25;6.25;;;30.55;97490.41;;;;118983;1190;25678;-65
2022/07/30 08:31:56;;;;;;;;;6.00;6.00;;;30.54;97488.11;;;;119006;1189;25632;-65
2022/07/30 08:34:24;;;;;;;;;11.00;7.50;;;30.52;97483.69;;;;118990;1189;25091;-65
2022/07/30 08:36:52;;;;;;;;;7.50;6.00;;;30.52;97479.08;;;;118914;1190;25516;-64
2022/07/30 08:39:20;;;;;;;;;7.00;7.00;;;30.50;97474.90;;;;118923;1190;25265;-65
2022/07/30 08:41:49;;;;;;;;;6.75;6.75;;;30.50;97476.39;;;;118987;1190;24732;-65
2022/07/30 08:44:18;;;;;;;;;8.75;8.50;;;30.49;97477.77;;;;118991;1189;26389;-65
2022/07/30 08:46:46;;;;;;;;;6.25;6.00;;;30.51;97479.10;;;;119011;1190;25187;-64
2022/07/30 08:49:15;;;;;;;;;8.00;6.75;;;30.50;97478.17;;;;119013;1188;26133;-65
2022/07/30 08:51:43;;;;;;;;;5.75;5.00;;;30.51;97476.05;;;;119224;1186;25537;-65
2022/07/30 08:54:11;;;;;;;;;4.00;4.00;;;30.50;97476.91;;;;119045;1188;25206;-65
2022/07/30 08:56:38;;;;;;;;;6.25;6.25;;;30.51;97479.02;;;;119006;1188;26356;-65
2022/07/30 08:59:06;;;;;;;;;10.25;8.50;;;30.50;97479.33;;;;119026;1188;25407;-65
2022/07/30 09:01:34;;;;;;;;;6.00;6.00;;;30.50;97480.94;;;;118995;1189;24940;-65
2022/07/30 09:04:03;;;;;;;;;6.75;6.75;;;30.50;97473.78;;;;119262;1188;24859;-65
2022/07/30 09:06:32;;;;;;;;;9.25;8.50;;;30.50;97472.73;;;;119269;1186;25206;-65
2022/07/30 09:09:01;;;;;;;;;9.75;8.00;;;30.51;97476.63;;;;119012;1187;25475;-65
2022/07/30 09:11:29;;;;;;;;;10.50;9.00;;;30.51;97470.83;;;;119239;1187;25167;-65
2022/07/30 09:14:10;;;;;;;;;9.25;9.00;;;30.50;97473.27;;;;119247;1187;25644;-65
2022/07/30 09:16:39;;;;;;;;;8.75;7.75;;;30.53;97472.51;;;;119004;1190;24944;-65
2022/07/30 09:19:20;;;;;;;;;8.75;5.50;;;30.55;97468.87;;;;119264;1188;25636;-65
2022/07/30 09:21:59;;;;;;;;;8.25;7.00;;;30.56;97467.52;;;;119082;1188;25474;-65
2022/07/30 09:24:27;;;;;;;;;6.00;6.00;;;30.55;97463.98;;;;119249;1187;24854;-65
2022/07/30 09:27:00;;;;;;;;;9.00;8.00;;;30.55;97462.98;;;;119225;1187;25548;-65
2022/07/30 09:29:30;;;;;;;;;8.50;6.25;;;30.55;97463.37;;;;119263;1188;25475;-65
2022/07/30 09:32:04;;;;;;;;;6.75;6.75;;;30.57;97459.39;;;;119275;1188;26352;-65
2022/07/30 09:34:38;;;;;;;;;8.50;8.25;;;30.57;97455.30;;;;119239;1188;25485;-65
2022/07/30 09:37:09;;;;;;;;;5.00;5.00;;;30.56;97450.17;;;;119239;1188;25677;-65
2022/07/30 09:39:41;;;;;;;;;8.00;8.00;;;30.57;97448.15;;;;119264;1188;25418;-65
2022/07/30 09:42:25;;;;;;;;;8.25;7.75;;;30.58;97441.73;;;;119254;1188;25143;-65
2022/07/30 09:45:13;;;;;;;;;7.00;7.00;;;30.61;97435.86;;;;119132;1188;24944;-64
2022/07/30 09:47:47;;;;;;;;;8.25;7.25;;;30.64;97429.13;;;;119006;1186;26136;-65
2022/07/30 09:50:18;;;;;;;;;7.00;7.00;;;30.69;97425.08;;;;119124;1187;25069;-65
2022/07/30 09:53:15;;;;;;;;;9.75;8.75;;;30.70;97421.05;;;;119106;1187;25647;-64
2022/07/30 09:55:44;;;;;;;;;10.00;7.50;;;30.72;97414.21;;;;119125;1188;25584;-65
2022/07/30 09:58:12;;;;;;;;;6.50;6.50;;;30.71;97412.27;;;;119027;1188;25730;-65
2022/07/30 10:00:57;;;;;;;;;7.75;7.75;;;30.71;97407.02;;;;119115;1187;25941;-65
2022/07/30 10:03:27;;;;;;;;;8.25;8.25;;;30.71;97403.27;;;;119056;1188;26386;-64
2022/07/30 10:06:08;;;;;;;;;10.00;8.50;;;30.72;97400.95;;;;119085;1187;25008;-64
2022/07/30 10:08:47;;;;;;;;;9.00;6.00;;;30.72;97398.65;;;;119067;1187;24961;-65
2022/07/30 10:11:17;;;;;;;;;14.75;10.50;;;30.70;97398.23;;;;119088;1187;26398;-65
2022/07/30 10:13:54;;;;;;;;;8.75;8.75;;;30.71;97396.13;;;;118937;1189;25150;-65
2022/07/30 10:16:26;;;;;;;;;8.75;8.75;;;30.73;97392.85;;;;118988;1189;26609;-66
2022/07/30 10:18:58;;;;;;;;;9.00;9.00;;;30.71;97390.13;;;;119098;1188;25320;-65
2022/07/30 10:21:27;;;;;;;;;11.25;10.00;;;30.71;97388.41;;;;119008;1187;25116;-63
2022/07/30 10:23:59;;;;;;;;;7.00;6.75;;;30.70;97382.10;;;;118992;1189;25143;-65
2022/07/30 10:26:34;;;;;;;;;6.00;6.00;;;30.69;97378.41;;;;119080;1187;26104;-65
2022/07/30 10:29:03;;;;;;;;;9.75;8.75;;;30.69;97377.23;;;;119088;1188;24684;-65
2022/07/30 10:31:32;;;;;;;;;9.50;9.50;;;30.70;97374.37;;;;119094;1188;24783;-65
2022/07/30 10:34:20;;;;;;;;;9.50;7.75;;;30.74;97371.89;;;;119029;1189;25100;-65
2022/07/30 10:36:57;;;;;;;;;7.75;6.50;;;30.76;97371.70;;;;119079;1188;24979;-65
2022/07/30 10:39:31;;;;;;;;;8.75;8.25;;;30.76;97369.28;;;;119112;1188;26195;-65
2022/07/30 10:42:10;;;;;;;;;7.50;7.00;;;30.76;97366.57;;;;119083;1187;24813;-65
2022/07/30 10:44:47;;;;;;;;;9.75;8.75;;;30.76;97366.48;;;;119000;1188;26079;-65
2022/07/30 10:47:17;;;;;;;;;10.75;9.00;;;30.75;97361.89;;;;119115;1187;26282;-64
2022/07/30 10:50:08;;;;;;;;;12.75;8.75;;;30.74;97356.55;;;;119163;1188;25872;-65
2022/07/30 10:52:56;;;;;;;;;8.50;7.50;;;30.78;97351.66;;;;119125;1188;24832;-65
2022/07/30 10:55:26;;;;;;;;;10.00;9.00;;;30.79;97345.75;;;;119139;1189;25105;-65
2022/07/30 10:58:11;;;;;;;;;9.25;7.00;;;30.80;97339.51;;;;119008;1189;25673;-65
2022/07/30 11:00:50;;;;;;;;;8.00;7.50;;;30.81;97335.71;;;;118981;1189;26187;-65
2022/07/30 11:03:26;;;;;;;;;10.00;7.25;;;30.81;97325.86;;;;119148;1188;26115;-65
2022/07/30 11:06:14;;;;;;;;;8.25;7.25;;;30.84;97315.91;;;;119097;1187;25386;-66
2022/07/30 11:08:48;;;;;;;;;10.75;7.75;;;30.85;97306.42;;;;119126;1188;25033;-65
2022/07/30 11:11:20;;;;;;;;;12.00;9.75;;;30.83;97302.11;;;;119002;1186;26070;-65
2022/07/30 11:14:08;;;;;;;;;10.50;9.00;;;30.88;97298.05;;;;119124;1188;25376;-66
2022/07/30 11:16:39;;;;;;;;;9.75;9.00;;;30.89;97295.20;;;;118993;1189;27160;-65
2022/07/30 11:19:15;;;;;;;;;9.25;9.25;;;30.86;97283.89;;;;119127;1188;25175;-65
2022/07/30 11:22:24;;;;;;;;;12.50;9.00;;;30.91;97276.74;;;;119120;1188;25303;-65
2022/07/30 11:24:52;;;;;;;;;11.00;10.00;;;30.93;97269.95;;;;119093;1188;25078;-65
2022/07/30 11:27:37;;;;;;;;;6.75;6.00;;;30.89;97263.88;;;;118904;1190;25148;-65
2022/07/30 11:30:27;;;;;;;;;8.50;7.50;;;30.91;97252.99;;;;119023;1188;26145;-65
2022/07/30 11:33:15;;;;;;;;;7.00;7.00;;;30.95;97252.08;;;;118975;1190;25208;-65
2022/07/30 11:36:07;;;;;;;;;7.50;7.50;;;31.01;97246.31;;;;119064;1188;25456;-66
2022/07/30 11:39:13;;;;;;;;;12.25;8.50;;;31.07;97243.54;;;;118985;1188;24987;-66
2022/07/30 11:41:41;;;;;;;;;10.25;9.50;;;31.09;97241.28;;;;119039;1188;25589;-65
2022/07/30 11:44:28;;;;;;;;;10.00;8.75;;;31.03;97232.91;;;;118978;1188;25520;-66
2022/07/30 11:46:56;;;;;;;;;12.25;10.50;;;30.98;97219.38;;;;119076;1189;25037;-66
2022/07/30 11:49:24;;;;;;;;;9.25;7.25;;;30.93;97211.77;;;;118985;1187;25053;-65
2022/07/30 11:51:53;;;;;;;;;11.00;11.00;;;30.89;97211.53;;;;119077;1189;25550;-65
2022/07/30 11:54:20;;;;;;;;;10.25;9.50;;;30.86;97209.77;;;;119078;1188;24770;-65
2022/07/30 11:56:53;;;;;;;;;9.75;8.25;;;30.83;97202.83;;;;119098;1188;25936;-65
2022/07/30 11:59:21;;;;;;;;;13.00;8.75;;;30.82;97200.14;;;;119069;1187;25639;-65
2022/07/30 12:01:51;;;;;;;;;9.50;7.50;;;30.81;97194.41;;;;119113;1188;25705;-65
2022/07/30 12:04:19;;;;;;;;;9.25;8.25;;;30.80;97188.74;;;;119068;1188;25191;-65
2022/07/30 12:06:47;;;;;;;;;10.25;8.75;;;30.79;97184.14;;;;119057;1188;25503;-63
2022/07/30 12:09:40;;;;;;;;;9.00;6.75;;;30.78;97181.48;;;;119042;1188;25903;-64
2022/07/30 12:12:23;;;;;;;;;11.00;10.50;;;30.82;97170.98;;;;119039;1187;25042;-64
2022/07/30 12:14:51;;;;;;;;;11.50;11.00;;;30.84;97159.86;;;;119051;1188;25151;-65
2022/07/30 12:17:19;;;;;;;;;12.00;10.75;;;30.81;97161.11;;;;119092;1187;25041;-64
2022/07/30 12:19:50;;;;;;;;;13.00;11.25;;;30.78;97169.04;;;;119018;1189;25003;-65
2022/07/30 12:22:18;;;;;;;;;13.75;13.00;;;30.77;97183.43;;;;119105;1187;25772;-64
2022/07/30 12:24:46;;;;;;;;;11.50;9.25;;;30.75;97194.95;;;;119081;1187;26081;-64
2022/07/30 12:27:16;;;;;;;;;12.25;8.75;;;30.74;97199.75;;;;119013;1189;26191;-64
2022/07/30 12:29:44;;;;;;;;;12.25;9.50;;;30.73;97191.86;;;;119103;1189;25411;-65
2022/07/30 12:32:12;;;;;;;;;13.25;11.00;;;30.73;97184.09;;;;119012;1189;25360;-64
2022/07/30 12:34:55;;;;;;;;;12.00;10.75;;;30.71;97191.51;;;;119026;1189;24936;-65